createdAt,value
2023-04-10T00:00:09.017Z,25.28
2023-04-10T00:00:19.032Z,25.29
2023-04-10T00:00:29.163Z,25.28
2023-04-10T00:00:39.168Z,25.29
2023-04-10T00:00:49.171Z,25.28
2023-04-10T00:00:59.172Z,25.28
2023-04-10T00:01:09.434Z,25.28
2023-04-10T00:01:19.427Z,25.28
2023-04-10T00:01:29.440Z,25.28
2023-04-10T00:01:39.493Z,25.28
2023-04-10T00:01:49.628Z,25.28
2023-04-10T00:01:59.598Z,25.28
2023-04-10T00:02:09.752Z,25.28
2023-04-10T00:02:19.767Z,25.28
2023-04-10T00:02:30.038Z,25.28
2023-04-10T00:02:39.925Z,25.27
2023-04-10T00:02:50.161Z,25.27
2023-04-10T00:03:00.501Z,25.27
2023-04-10T00:03:10.292Z,25.27
2023-04-10T00:03:20.317Z,25.26
2023-04-10T00:03:30.329Z,25.26
2023-04-10T00:03:40.359Z,25.26
2023-04-10T00:03:50.507Z,25.26
2023-04-10T00:04:01.134Z,25.26
2023-04-10T00:04:10.879Z,25.26
2023-04-10T00:04:20.833Z,25.26
2023-04-10T00:04:31.185Z,25.26
2023-04-10T00:04:41.144Z,25.25
2023-04-10T00:04:51.335Z,25.26
2023-04-10T00:05:01.481Z,25.24
2023-04-10T00:05:11.690Z,25.24
2023-04-10T00:05:21.538Z,25.25
2023-04-10T00:05:31.935Z,25.25
2023-04-10T00:05:41.927Z,25.25
2023-04-10T00:05:51.934Z,25.25
2023-04-10T00:06:01.949Z,25.25
2023-04-10T00:06:11.947Z,25.24
2023-04-10T00:06:21.951Z,25.24
2023-04-10T00:06:31.961Z,25.24
2023-04-10T00:06:41.967Z,25.25
2023-04-10T00:06:52.103Z,25.25
2023-04-10T00:07:02.089Z,25.25
2023-04-10T00:07:12.364Z,25.26
2023-04-10T00:07:22.380Z,25.25
2023-04-10T00:07:32.394Z,25.25
2023-04-10T00:07:42.390Z,25.25
2023-04-10T00:07:52.415Z,25.24
2023-04-10T00:08:02.424Z,25.24
2023-04-10T00:08:12.437Z,25.24
2023-04-10T00:08:22.449Z,25.23
2023-04-10T00:08:32.461Z,25.24
2023-04-10T00:08:42.457Z,25.23
2023-04-10T00:08:52.463Z,25.23
2023-04-10T00:09:02.484Z,25.23
2023-04-10T00:09:12.492Z,25.22
2023-04-10T00:09:22.487Z,25.22
2023-04-10T00:09:32.537Z,25.22
2023-04-10T00:09:42.546Z,25.22
2023-04-10T00:09:52.560Z,25.22
2023-04-10T00:10:02.617Z,25.22
2023-04-10T00:10:12.625Z,25.21
2023-04-10T00:10:22.640Z,25.21
2023-04-10T00:10:32.627Z,25.21
2023-04-10T00:10:42.635Z,25.21
2023-04-10T00:10:52.758Z,25.21
2023-04-10T00:11:02.755Z,25.21
2023-04-10T00:11:13.037Z,25.20
2023-04-10T00:11:23.055Z,25.20
2023-04-10T00:11:33.053Z,25.19
2023-04-10T00:11:43.068Z,25.20
2023-04-10T00:11:53.078Z,25.20
2023-04-10T00:12:03.085Z,25.20
2023-04-10T00:12:13.091Z,25.19
2023-04-10T00:12:23.104Z,25.19
2023-04-10T00:12:33.113Z,25.20
2023-04-10T00:12:43.128Z,25.19
2023-04-10T00:12:53.133Z,25.19
2023-04-10T00:13:03.157Z,25.18
2023-04-10T00:13:13.160Z,25.19
2023-04-10T00:13:23.165Z,25.19
2023-04-10T00:13:33.174Z,25.19
2023-04-10T00:13:43.188Z,25.19
2023-04-10T00:13:53.386Z,25.19
2023-04-10T00:14:03.223Z,25.18
2023-04-10T00:14:13.226Z,25.19
2023-04-10T00:14:23.242Z,25.18
2023-04-10T00:14:33.352Z,25.17
2023-04-10T00:14:43.363Z,25.18
2023-04-10T00:14:53.476Z,25.17
2023-04-10T00:15:03.484Z,25.17
2023-04-10T00:15:13.612Z,25.17
2023-04-10T00:15:23.631Z,25.17
2023-04-10T00:15:33.639Z,25.16
2023-04-10T00:15:43.638Z,25.16
2023-04-10T00:15:53.647Z,25.16
2023-04-10T00:16:03.678Z,25.16
2023-04-10T00:16:13.784Z,25.16
2023-04-10T00:16:23.823Z,25.15
2023-04-10T00:16:33.907Z,25.14
2023-04-10T00:16:43.923Z,25.15
2023-04-10T00:16:54.332Z,25.15
2023-04-10T00:17:04.314Z,25.15
2023-04-10T00:17:14.320Z,25.14
2023-04-10T00:17:24.337Z,25.15
2023-04-10T00:17:34.378Z,25.13
2023-04-10T00:17:44.424Z,25.14
2023-04-10T00:17:54.483Z,25.14
2023-04-10T00:18:04.523Z,25.13
2023-04-10T00:18:14.570Z,25.13
2023-04-10T00:18:24.575Z,25.13
2023-04-10T00:18:34.979Z,25.13
2023-04-10T00:18:44.998Z,25.13
2023-04-10T00:18:54.991Z,25.13
2023-04-10T00:19:05.003Z,25.13
2023-04-10T00:19:15.009Z,25.12
2023-04-10T00:19:25.018Z,25.12
2023-04-10T00:19:35.033Z,25.12
2023-04-10T00:19:45.036Z,25.12
2023-04-10T00:19:55.052Z,25.12
2023-04-10T00:20:05.075Z,25.12
2023-04-10T00:20:15.065Z,25.13
2023-04-10T00:20:25.086Z,25.11
2023-04-10T00:20:35.101Z,25.11
2023-04-10T00:20:45.119Z,25.11
2023-04-10T00:20:55.117Z,25.11
2023-04-10T00:21:05.125Z,25.11
2023-04-10T00:21:15.250Z,25.11
2023-04-10T00:21:25.505Z,25.11
2023-04-10T00:21:35.506Z,25.11
2023-04-10T00:21:45.516Z,25.10
2023-04-10T00:21:55.537Z,25.10
2023-04-10T00:22:05.548Z,25.11
2023-04-10T00:22:15.573Z,25.10
2023-04-10T00:22:25.563Z,25.10
2023-04-10T00:22:35.579Z,25.10
2023-04-10T00:22:45.576Z,25.09
2023-04-10T00:22:55.600Z,25.09
2023-04-10T00:23:05.605Z,25.08
2023-04-10T00:23:15.611Z,25.09
2023-04-10T00:23:25.617Z,25.09
2023-04-10T00:23:35.640Z,25.09
2023-04-10T00:23:45.646Z,25.08
2023-04-10T00:23:55.785Z,25.08
2023-04-10T00:24:05.729Z,25.08
2023-04-10T00:24:16.129Z,25.08
2023-04-10T00:24:26.132Z,25.08
2023-04-10T00:24:36.250Z,25.07
2023-04-10T00:24:46.514Z,25.07
2023-04-10T00:24:56.648Z,25.06
2023-04-10T00:25:06.657Z,25.07
2023-04-10T00:25:16.940Z,25.06
2023-04-10T00:25:26.931Z,25.06
2023-04-10T00:25:36.962Z,25.06
2023-04-10T00:25:46.953Z,25.06
2023-04-10T00:25:56.956Z,25.05
2023-04-10T00:26:06.961Z,25.04
2023-04-10T00:26:16.974Z,25.05
2023-04-10T00:26:26.982Z,25.04
2023-04-10T00:26:36.976Z,25.04
2023-04-10T00:26:46.973Z,25.04
2023-04-10T00:26:57.440Z,25.04
2023-04-10T00:27:07.455Z,25.03
2023-04-10T00:27:17.458Z,25.03
2023-04-10T00:27:27.729Z,25.03
2023-04-10T00:27:37.726Z,25.03
2023-04-10T00:27:47.726Z,25.03
2023-04-10T00:27:58.119Z,25.03
2023-04-10T00:28:08.137Z,25.03
2023-04-10T00:28:18.143Z,25.02
2023-04-10T00:28:28.162Z,25.02
2023-04-10T00:28:38.190Z,25.02
2023-04-10T00:28:48.200Z,25.02
2023-04-10T00:28:58.196Z,25.01
2023-04-10T00:29:08.279Z,25.02
2023-04-10T00:29:18.281Z,25.02
2023-04-10T00:29:28.410Z,25.01
2023-04-10T00:29:38.741Z,25.02
2023-04-10T00:29:48.749Z,25.00
2023-04-10T00:29:58.742Z,25.01
2023-04-10T00:30:08.762Z,25.00
2023-04-10T00:30:18.776Z,25.00
2023-04-10T00:30:28.901Z,24.99
2023-04-10T00:30:38.902Z,24.99
2023-04-10T00:30:48.908Z,25.00
2023-04-10T00:30:58.969Z,24.99
2023-04-10T00:31:08.963Z,24.98
2023-04-10T00:31:19.222Z,24.98
2023-04-10T00:31:29.243Z,24.98
2023-04-10T00:31:39.295Z,24.97
2023-04-10T00:31:49.382Z,24.97
2023-04-10T00:31:59.491Z,24.97
2023-04-10T00:32:09.471Z,24.97
2023-04-10T00:32:19.733Z,24.96
2023-04-10T00:32:29.555Z,24.96
2023-04-10T00:32:39.598Z,24.96
2023-04-10T00:32:49.615Z,24.95
2023-04-10T00:32:59.987Z,24.95
2023-04-10T00:33:10.046Z,24.94
2023-04-10T00:33:20.070Z,24.95
2023-04-10T00:33:30.329Z,24.94
2023-04-10T00:33:40.331Z,24.94
2023-04-10T00:33:50.487Z,24.94
2023-04-10T00:34:00.739Z,24.94
2023-04-10T00:34:10.744Z,24.94
2023-04-10T00:34:20.748Z,24.94
2023-04-10T00:34:30.751Z,24.94
2023-04-10T00:34:40.762Z,24.92
2023-04-10T00:34:50.878Z,24.92
2023-04-10T00:35:00.886Z,24.93
2023-04-10T00:35:10.894Z,24.92
2023-04-10T00:35:20.909Z,24.92
2023-04-10T00:35:30.922Z,24.92
2023-04-10T00:35:41.192Z,24.92
2023-04-10T00:35:51.265Z,24.92
2023-04-10T00:36:01.266Z,24.91
2023-04-10T00:36:11.278Z,24.91
2023-04-10T00:36:21.356Z,24.91
2023-04-10T00:36:31.351Z,24.90
2023-04-10T00:36:41.353Z,24.91
2023-04-10T00:36:51.490Z,24.90
2023-04-10T00:37:01.489Z,24.91
2023-04-10T00:37:11.611Z,24.91
2023-04-10T00:37:21.762Z,24.90
2023-04-10T00:37:31.765Z,24.89
2023-04-10T00:37:41.800Z,24.89
2023-04-10T00:37:51.822Z,24.89
2023-04-10T00:38:01.830Z,24.89
2023-04-10T00:38:11.830Z,24.89
2023-04-10T00:38:21.905Z,24.89
2023-04-10T00:38:31.917Z,24.89
2023-04-10T00:38:41.920Z,24.88
2023-04-10T00:38:52.035Z,24.88
2023-04-10T00:39:02.313Z,24.88
2023-04-10T00:39:12.327Z,24.87
2023-04-10T00:39:22.328Z,24.87
2023-04-10T00:39:32.704Z,24.87
2023-04-10T00:39:42.714Z,24.86
2023-04-10T00:39:52.729Z,24.87
2023-04-10T00:40:02.737Z,24.84
2023-04-10T00:40:12.740Z,24.84
2023-04-10T00:40:22.771Z,24.85
2023-04-10T00:40:32.794Z,24.84
2023-04-10T00:40:42.798Z,24.84
2023-04-10T00:40:52.806Z,24.83
2023-04-10T00:41:02.812Z,24.85
2023-04-10T00:41:13.180Z,24.85
2023-04-10T00:41:23.188Z,24.84
2023-04-10T00:41:33.190Z,24.84
2023-04-10T00:41:43.199Z,24.84
2023-04-10T00:41:53.212Z,24.83
2023-04-10T00:42:03.216Z,24.82
2023-04-10T00:42:13.230Z,24.82
2023-04-10T00:42:23.246Z,24.81
2023-04-10T00:42:33.252Z,24.82
2023-04-10T00:42:43.267Z,24.82
2023-04-10T00:42:53.257Z,24.82
2023-04-10T00:43:03.268Z,24.82
2023-04-10T00:43:13.380Z,24.81
2023-04-10T00:43:23.393Z,24.81
2023-04-10T00:43:33.420Z,24.81
2023-04-10T00:43:43.422Z,24.81
2023-04-10T00:43:53.603Z,24.81
2023-04-10T00:44:03.788Z,24.80
2023-04-10T00:44:13.786Z,24.80
2023-04-10T00:44:23.797Z,24.80
2023-04-10T00:44:33.788Z,24.80
2023-04-10T00:44:43.789Z,24.79
2023-04-10T00:44:53.918Z,24.79
2023-04-10T00:45:03.932Z,24.80
2023-04-10T00:45:13.952Z,24.79
2023-04-10T00:45:23.983Z,24.79
2023-04-10T00:45:34.022Z,24.78
2023-04-10T00:45:44.364Z,24.79
2023-04-10T00:45:54.398Z,24.79
2023-04-10T00:46:04.457Z,24.78
2023-04-10T00:46:14.500Z,24.79
2023-04-10T00:46:24.573Z,24.78
2023-04-10T00:46:34.641Z,24.78
2023-04-10T00:46:44.655Z,24.78
2023-04-10T00:46:54.657Z,24.77
2023-04-10T00:47:04.658Z,24.77
2023-04-10T00:47:14.805Z,24.78
2023-04-10T00:47:25.091Z,24.78
2023-04-10T00:47:35.157Z,24.77
2023-04-10T00:47:45.197Z,24.76
2023-04-10T00:47:55.248Z,24.77
2023-04-10T00:48:05.286Z,24.77
2023-04-10T00:48:15.290Z,24.76
2023-04-10T00:48:25.290Z,24.77
2023-04-10T00:48:35.341Z,24.76
2023-04-10T00:48:45.352Z,24.76
2023-04-10T00:48:55.365Z,24.77
2023-04-10T00:49:05.376Z,24.76
2023-04-10T00:49:15.379Z,24.76
2023-04-10T00:49:25.389Z,24.76
2023-04-10T00:49:35.419Z,24.76
2023-04-10T00:49:45.447Z,24.75
2023-04-10T00:49:55.449Z,24.75
2023-04-10T00:50:05.487Z,24.75
2023-04-10T00:50:15.492Z,24.75
2023-04-10T00:50:25.499Z,24.75
2023-04-10T00:50:35.616Z,24.74
2023-04-10T00:50:45.630Z,24.75
2023-04-10T00:50:55.763Z,24.75
2023-04-10T00:51:05.763Z,24.75
2023-04-10T00:51:15.776Z,24.74
2023-04-10T00:51:25.908Z,24.73
2023-04-10T00:51:36.053Z,24.74
2023-04-10T00:51:46.054Z,24.73
2023-04-10T00:51:58.358Z,24.73
2023-04-10T00:52:06.422Z,24.73
2023-04-10T00:52:16.426Z,24.73
2023-04-10T00:52:26.691Z,24.73
2023-04-10T00:52:36.697Z,24.73
2023-04-10T00:52:46.700Z,24.73
2023-04-10T00:52:57.090Z,24.73
2023-04-10T00:53:07.116Z,24.73
2023-04-10T00:53:17.117Z,24.73
2023-04-10T00:53:27.125Z,24.73
2023-04-10T00:53:37.145Z,24.74
2023-04-10T00:53:47.146Z,24.73
2023-04-10T00:53:57.396Z,24.73
2023-04-10T00:54:07.234Z,24.72
2023-04-10T00:54:17.244Z,24.72
2023-04-10T00:54:27.239Z,24.72
2023-04-10T00:54:37.253Z,24.71
2023-04-10T00:54:47.274Z,24.71
2023-04-10T00:54:57.271Z,24.71
2023-04-10T00:55:07.306Z,24.71
2023-04-10T00:55:17.299Z,24.71
2023-04-10T00:55:27.299Z,24.72
2023-04-10T00:55:37.308Z,24.71
2023-04-10T00:55:47.358Z,24.70
2023-04-10T00:55:57.364Z,24.70
2023-04-10T00:56:07.341Z,24.70
2023-04-10T00:56:17.342Z,24.70
2023-04-10T00:56:27.348Z,24.69
2023-04-10T00:56:37.352Z,24.69
2023-04-10T00:56:47.367Z,24.69
2023-04-10T00:56:57.744Z,24.69
2023-04-10T00:57:07.755Z,24.69
2023-04-10T00:57:17.757Z,24.69
2023-04-10T00:57:27.758Z,24.68
2023-04-10T00:57:37.784Z,24.69
2023-04-10T00:57:47.777Z,24.68
2023-04-10T00:57:57.793Z,24.68
2023-04-10T00:58:07.804Z,24.67
2023-04-10T00:58:17.926Z,24.68
2023-04-10T00:58:27.928Z,24.68
2023-04-10T00:58:38.203Z,24.68
2023-04-10T00:58:48.205Z,24.68
2023-04-10T00:58:58.217Z,24.68
2023-04-10T00:59:08.221Z,24.68
2023-04-10T00:59:18.272Z,24.68
2023-04-10T00:59:28.270Z,24.68
2023-04-10T00:59:38.414Z,24.67
2023-04-10T00:59:48.426Z,24.67
2023-04-10T00:59:58.432Z,24.67
2023-04-10T01:00:08.434Z,24.67
2023-04-10T01:00:18.702Z,24.67
2023-04-10T01:00:28.711Z,24.67
2023-04-10T01:00:38.724Z,24.67
2023-04-10T01:00:48.728Z,24.67
2023-04-10T01:00:58.769Z,24.66
2023-04-10T01:01:08.891Z,24.66
2023-04-10T01:01:18.849Z,24.67
2023-04-10T01:01:28.875Z,24.66
2023-04-10T01:01:38.968Z,24.66
2023-04-10T01:01:49.057Z,24.65
2023-04-10T01:01:59.065Z,24.65
2023-04-10T01:02:08.939Z,24.65
2023-04-10T01:02:19.120Z,24.65
2023-04-10T01:02:29.112Z,24.64
2023-04-10T01:02:39.290Z,24.64
2023-04-10T01:02:49.326Z,24.64
2023-04-10T01:02:59.429Z,24.64
2023-04-10T01:03:09.388Z,24.63
2023-04-10T01:03:19.686Z,24.63
2023-04-10T01:03:29.769Z,24.63
2023-04-10T01:03:39.782Z,24.63
2023-04-10T01:03:50.042Z,24.63
2023-04-10T01:04:00.402Z,24.63
2023-04-10T01:04:10.238Z,24.62
2023-04-10T01:04:20.568Z,24.62
2023-04-10T01:04:30.789Z,24.62
2023-04-10T01:04:40.601Z,24.62
2023-04-10T01:04:50.857Z,24.63
2023-04-10T01:05:00.876Z,24.63
2023-04-10T01:05:10.876Z,24.63
2023-04-10T01:05:20.896Z,24.62
2023-04-10T01:05:30.902Z,24.63
2023-04-10T01:05:40.981Z,24.62
2023-04-10T01:05:50.990Z,24.62
2023-04-10T01:06:00.998Z,24.61
2023-04-10T01:06:11.018Z,24.61
2023-04-10T01:06:21.013Z,24.62
2023-04-10T01:06:31.061Z,24.61
2023-04-10T01:06:41.070Z,24.62
2023-04-10T01:06:51.074Z,24.62
2023-04-10T01:07:01.095Z,24.62
2023-04-10T01:07:11.110Z,24.61
2023-04-10T01:07:21.107Z,24.62
2023-04-10T01:07:31.110Z,24.61
2023-04-10T01:07:41.126Z,24.61
2023-04-10T01:07:51.137Z,24.61
2023-04-10T01:08:01.139Z,24.61
2023-04-10T01:08:11.150Z,24.62
2023-04-10T01:08:21.168Z,24.61
2023-04-10T01:08:31.195Z,24.61
2023-04-10T01:08:41.225Z,24.61
2023-04-10T01:08:51.234Z,24.61
2023-04-10T01:09:01.243Z,24.60
2023-04-10T01:09:11.251Z,24.60
2023-04-10T01:09:21.263Z,24.60
2023-04-10T01:09:31.269Z,24.60
2023-04-10T01:09:41.289Z,24.60
2023-04-10T01:09:51.291Z,24.60
2023-04-10T01:10:01.314Z,24.60
2023-04-10T01:10:11.308Z,24.59
2023-04-10T01:10:21.322Z,24.59
2023-04-10T01:10:31.328Z,24.60
2023-04-10T01:10:41.339Z,24.60
2023-04-10T01:10:51.357Z,24.60
2023-04-10T01:11:01.358Z,24.60
2023-04-10T01:11:11.409Z,24.59
2023-04-10T01:11:21.409Z,24.60
2023-04-10T01:11:31.419Z,24.60
2023-04-10T01:11:41.414Z,24.60
2023-04-10T01:11:51.546Z,24.60
2023-04-10T01:12:01.552Z,24.59
2023-04-10T01:12:11.550Z,24.60
2023-04-10T01:12:21.809Z,24.59
2023-04-10T01:12:31.828Z,24.59
2023-04-10T01:12:41.813Z,24.60
2023-04-10T01:12:52.193Z,24.59
2023-04-10T01:13:02.191Z,24.59
2023-04-10T01:13:12.319Z,24.59
2023-04-10T01:13:22.575Z,24.59
2023-04-10T01:13:32.576Z,24.59
2023-04-10T01:13:42.576Z,24.58
2023-04-10T01:13:53.126Z,24.59
2023-04-10T01:14:03.006Z,24.59
2023-04-10T01:14:13.005Z,24.59
2023-04-10T01:14:23.019Z,24.59
2023-04-10T01:14:33.039Z,24.58
2023-04-10T01:14:43.034Z,24.58
2023-04-10T01:14:53.045Z,24.59
2023-04-10T01:15:03.062Z,24.58
2023-04-10T01:15:13.098Z,24.58
2023-04-10T01:15:23.079Z,24.59
2023-04-10T01:15:33.086Z,24.58
2023-04-10T01:15:43.112Z,24.58
2023-04-10T01:15:53.106Z,24.58
2023-04-10T01:16:03.116Z,24.59
2023-04-10T01:16:13.147Z,24.59
2023-04-10T01:16:23.169Z,24.58
2023-04-10T01:16:33.216Z,24.58
2023-04-10T01:16:43.249Z,24.58
2023-04-10T01:16:53.399Z,24.57
2023-04-10T01:17:03.458Z,24.57
2023-04-10T01:17:13.331Z,24.57
2023-04-10T01:17:23.386Z,24.56
2023-04-10T01:17:33.463Z,24.56
2023-04-10T01:17:43.578Z,24.56
2023-04-10T01:17:53.888Z,24.55
2023-04-10T01:18:03.936Z,24.56
2023-04-10T01:18:13.967Z,24.55
2023-04-10T01:18:23.963Z,24.55
2023-04-10T01:18:33.979Z,24.55
2023-04-10T01:18:43.983Z,24.54
2023-04-10T01:18:53.990Z,24.55
2023-04-10T01:19:04.088Z,24.56
2023-04-10T01:19:14.126Z,24.55
2023-04-10T01:19:24.116Z,24.55
2023-04-10T01:19:34.386Z,24.55
2023-04-10T01:19:44.399Z,24.55
2023-04-10T01:19:54.519Z,24.54
2023-04-10T01:20:04.799Z,24.54
2023-04-10T01:20:14.787Z,24.54
2023-04-10T01:20:24.789Z,24.54
2023-04-10T01:20:34.817Z,24.54
2023-04-10T01:20:44.830Z,24.54
2023-04-10T01:20:54.844Z,24.54
2023-04-10T01:21:04.856Z,24.54
2023-04-10T01:21:14.874Z,24.55
2023-04-10T01:21:24.874Z,24.55
2023-04-10T01:21:34.996Z,24.54
2023-04-10T01:21:45.256Z,24.54
2023-04-10T01:21:55.267Z,24.54
2023-04-10T01:22:05.283Z,24.54
2023-04-10T01:22:15.291Z,24.54
2023-04-10T01:22:25.294Z,24.53
2023-04-10T01:22:35.341Z,24.53
2023-04-10T01:22:45.409Z,24.53
2023-04-10T01:22:55.461Z,24.53
2023-04-10T01:23:05.442Z,24.53
2023-04-10T01:23:15.440Z,24.53
2023-04-10T01:23:25.721Z,24.53
2023-04-10T01:23:35.832Z,24.53
2023-04-10T01:23:45.836Z,24.53
2023-04-10T01:23:56.365Z,24.54
2023-04-10T01:24:06.171Z,24.53
2023-04-10T01:24:16.186Z,24.53
2023-04-10T01:24:26.181Z,24.53
2023-04-10T01:24:36.174Z,24.54
2023-04-10T01:24:46.181Z,24.54
2023-04-10T01:24:56.308Z,24.54
2023-04-10T01:25:06.307Z,24.53
2023-04-10T01:25:16.318Z,24.53
2023-04-10T01:25:26.321Z,24.54
2023-04-10T01:25:36.582Z,24.54
2023-04-10T01:25:46.573Z,24.53
2023-04-10T01:25:56.707Z,24.53
2023-04-10T01:26:06.993Z,24.53
2023-04-10T01:26:16.987Z,24.53
2023-04-10T01:26:26.989Z,24.53
2023-04-10T01:26:37.000Z,24.53
2023-04-10T01:26:47.001Z,24.53
2023-04-10T01:26:57.120Z,24.53
2023-04-10T01:27:07.122Z,24.53
2023-04-10T01:27:17.132Z,24.53
2023-04-10T01:27:27.141Z,24.52
2023-04-10T01:27:37.166Z,24.53
2023-04-10T01:27:47.411Z,24.52
2023-04-10T01:27:57.428Z,24.53
2023-04-10T01:28:07.427Z,24.53
2023-04-10T01:28:17.442Z,24.53
2023-04-10T01:28:27.469Z,24.52
2023-04-10T01:28:37.494Z,24.53
2023-04-10T01:28:47.522Z,24.52
2023-04-10T01:28:57.591Z,24.52
2023-04-10T01:29:07.588Z,24.52
2023-04-10T01:29:17.605Z,24.51
2023-04-10T01:29:27.608Z,24.52
2023-04-10T01:29:37.654Z,24.51
2023-04-10T01:29:47.697Z,24.51
2023-04-10T01:29:57.711Z,24.51
2023-04-10T01:30:07.722Z,24.51
2023-04-10T01:30:17.840Z,24.51
2023-04-10T01:30:27.843Z,24.51
2023-04-10T01:30:38.143Z,24.51
2023-04-10T01:30:48.185Z,24.50
2023-04-10T01:30:58.225Z,24.51
2023-04-10T01:31:08.316Z,24.51
2023-04-10T01:31:18.437Z,24.51
2023-04-10T01:31:28.414Z,24.50
2023-04-10T01:31:38.423Z,24.50
2023-04-10T01:31:48.428Z,24.49
2023-04-10T01:31:58.594Z,24.50
2023-04-10T01:32:08.611Z,24.50
2023-04-10T01:32:18.866Z,24.50
2023-04-10T01:32:28.942Z,24.51
2023-04-10T01:32:38.950Z,24.50
2023-04-10T01:32:48.992Z,24.50
2023-04-10T01:32:59.069Z,24.51
2023-04-10T01:33:09.028Z,24.50
2023-04-10T01:33:19.022Z,24.51
2023-04-10T01:33:29.028Z,24.50
2023-04-10T01:33:39.035Z,24.50
2023-04-10T01:33:49.037Z,24.50
2023-04-10T01:33:59.451Z,24.50
2023-04-10T01:34:09.597Z,24.50
2023-04-10T01:34:19.575Z,24.49
2023-04-10T01:34:29.642Z,24.50
2023-04-10T01:34:39.691Z,24.50
2023-04-10T01:34:49.703Z,24.49
2023-04-10T01:34:59.822Z,24.49
2023-04-10T01:35:09.834Z,24.50
2023-04-10T01:35:19.825Z,24.49
2023-04-10T01:35:29.848Z,24.50
2023-04-10T01:35:40.158Z,24.50
2023-04-10T01:35:50.270Z,24.49
2023-04-10T01:36:00.273Z,24.49
2023-04-10T01:36:10.353Z,24.49
2023-04-10T01:36:20.377Z,24.49
2023-04-10T01:36:30.379Z,24.49
2023-04-10T01:36:40.522Z,24.49
2023-04-10T01:36:50.518Z,24.48
2023-04-10T01:37:00.518Z,24.48
2023-04-10T01:37:10.521Z,24.48
2023-04-10T01:37:20.784Z,24.48
2023-04-10T01:37:30.785Z,24.49
2023-04-10T01:37:40.814Z,24.47
2023-04-10T01:37:50.807Z,24.49
2023-04-10T01:38:00.823Z,24.48
2023-04-10T01:38:10.822Z,24.48
2023-04-10T01:38:20.952Z,24.47
2023-04-10T01:38:30.951Z,24.48
2023-04-10T01:38:40.955Z,24.47
2023-04-10T01:38:50.969Z,24.47
2023-04-10T01:39:01.249Z,24.48
2023-04-10T01:39:11.246Z,24.47
2023-04-10T01:39:21.255Z,24.47
2023-04-10T01:39:31.263Z,24.47
2023-04-10T01:39:41.277Z,24.47
2023-04-10T01:39:51.285Z,24.47
2023-04-10T01:40:01.461Z,24.47
2023-04-10T01:40:11.486Z,24.47
2023-04-10T01:40:21.491Z,24.48
2023-04-10T01:40:31.501Z,24.48
2023-04-10T01:40:41.756Z,24.47
2023-04-10T01:40:51.754Z,24.47
2023-04-10T01:41:01.813Z,24.46
2023-04-10T01:41:11.801Z,24.47
2023-04-10T01:41:21.811Z,24.47
2023-04-10T01:41:31.820Z,24.46
2023-04-10T01:41:41.816Z,24.47
2023-04-10T01:41:51.820Z,24.47
2023-04-10T01:42:01.996Z,24.47
2023-04-10T01:42:12.032Z,24.46
2023-04-10T01:42:22.277Z,24.46
2023-04-10T01:42:32.288Z,24.47
2023-04-10T01:42:44.363Z,24.46
2023-04-10T01:42:52.451Z,24.44
2023-04-10T01:43:02.589Z,24.45
2023-04-10T01:43:12.707Z,24.45
2023-04-10T01:43:22.846Z,24.46
2023-04-10T01:43:32.855Z,24.46
2023-04-10T01:43:43.102Z,24.46
2023-04-10T01:43:53.328Z,24.46
2023-04-10T01:44:03.127Z,24.45
2023-04-10T01:44:13.128Z,24.45
2023-04-10T01:44:23.139Z,24.45
2023-04-10T01:44:33.141Z,24.45
2023-04-10T01:44:43.160Z,24.45
2023-04-10T01:44:53.160Z,24.45
2023-04-10T01:45:03.282Z,24.44
2023-04-10T01:45:13.287Z,24.45
2023-04-10T01:45:23.546Z,24.45
2023-04-10T01:45:33.557Z,24.45
2023-04-10T01:45:43.543Z,24.45
2023-04-10T01:45:53.620Z,24.46
2023-04-10T01:46:03.641Z,24.46
2023-04-10T01:46:13.718Z,24.45
2023-04-10T01:46:23.792Z,24.46
2023-04-10T01:46:33.849Z,24.45
2023-04-10T01:46:44.007Z,24.46
2023-04-10T01:46:53.927Z,24.45
2023-04-10T01:47:04.187Z,24.45
2023-04-10T01:47:14.201Z,24.45
2023-04-10T01:47:24.227Z,24.45
2023-04-10T01:47:34.323Z,24.45
2023-04-10T01:47:44.384Z,24.45
2023-04-10T01:47:54.409Z,24.45
2023-04-10T01:48:04.442Z,24.45
2023-04-10T01:48:14.459Z,24.45
2023-04-10T01:48:24.442Z,24.44
2023-04-10T01:48:34.451Z,24.44
2023-04-10T01:48:44.463Z,24.44
2023-04-10T01:48:54.465Z,24.44
2023-04-10T01:49:04.470Z,24.44
2023-04-10T01:49:14.487Z,24.44
2023-04-10T01:49:24.499Z,24.44
2023-04-10T01:49:34.511Z,24.44
2023-04-10T01:49:44.572Z,24.43
2023-04-10T01:49:54.599Z,24.42
2023-04-10T01:50:04.607Z,24.43
2023-04-10T01:50:14.599Z,24.43
2023-04-10T01:50:24.611Z,24.43
2023-04-10T01:50:34.621Z,24.42
2023-04-10T01:50:44.617Z,24.43
2023-04-10T01:50:54.629Z,24.42
2023-04-10T01:51:04.634Z,24.42
2023-04-10T01:51:14.632Z,24.42
2023-04-10T01:51:24.643Z,24.42
2023-04-10T01:51:34.658Z,24.42
2023-04-10T01:51:44.663Z,24.42
2023-04-10T01:51:54.677Z,24.41
2023-04-10T01:52:04.667Z,24.42
2023-04-10T01:52:14.703Z,24.42
2023-04-10T01:52:24.720Z,24.42
2023-04-10T01:52:34.720Z,24.42
2023-04-10T01:52:44.723Z,24.43
2023-04-10T01:52:54.746Z,24.43
2023-04-10T01:53:04.742Z,24.43
2023-04-10T01:53:14.750Z,24.42
2023-04-10T01:53:24.761Z,24.42
2023-04-10T01:53:34.776Z,24.42
2023-04-10T01:53:44.786Z,24.42
2023-04-10T01:53:54.996Z,24.42
2023-04-10T01:54:06.902Z,24.42
2023-04-10T01:54:14.837Z,24.41
2023-04-10T01:54:24.840Z,24.41
2023-04-10T01:54:34.839Z,24.40
2023-04-10T01:54:44.844Z,24.40
2023-04-10T01:54:54.976Z,24.40
2023-04-10T01:55:04.972Z,24.40
2023-04-10T01:55:14.974Z,24.40
2023-04-10T01:55:24.992Z,24.41
2023-04-10T01:55:35.001Z,24.41
2023-04-10T01:55:45.293Z,24.40
2023-04-10T01:55:55.277Z,24.41
2023-04-10T01:56:05.296Z,24.41
2023-04-10T01:56:15.306Z,24.40
2023-04-10T01:56:25.331Z,24.41
2023-04-10T01:56:35.457Z,24.41
2023-04-10T01:56:45.456Z,24.41
2023-04-10T01:56:55.469Z,24.42
2023-04-10T01:57:05.473Z,24.42
2023-04-10T01:57:15.493Z,24.42
2023-04-10T01:57:25.752Z,24.42
2023-04-10T01:57:35.750Z,24.42
2023-04-10T01:57:45.756Z,24.42
2023-04-10T01:57:55.755Z,24.42
2023-04-10T01:58:05.760Z,24.42
2023-04-10T01:58:15.880Z,24.42
2023-04-10T01:58:25.891Z,24.42
2023-04-10T01:58:35.898Z,24.43
2023-04-10T01:58:45.897Z,24.42
2023-04-10T01:58:56.025Z,24.43
2023-04-10T01:59:06.151Z,24.42
2023-04-10T01:59:16.167Z,24.42
2023-04-10T01:59:26.174Z,24.42
2023-04-10T01:59:36.555Z,24.42
2023-04-10T01:59:46.575Z,24.42
2023-04-10T01:59:56.569Z,24.42
2023-04-10T02:00:06.618Z,24.42
2023-04-10T02:00:16.640Z,24.41
2023-04-10T02:00:26.712Z,24.41
2023-04-10T02:00:36.706Z,24.41
2023-04-10T02:00:46.716Z,24.41
2023-04-10T02:00:56.734Z,24.41
2023-04-10T02:01:07.636Z,24.41
2023-04-10T02:01:28.322Z,24.40
2023-04-10T02:01:30.219Z,24.34
2023-04-10T02:01:37.322Z,24.33
2023-04-10T02:01:47.385Z,24.36
2023-04-10T02:01:57.503Z,24.37
2023-04-10T02:02:07.945Z,24.36
2023-04-10T02:02:17.848Z,24.37
2023-04-10T02:02:27.955Z,24.37
2023-04-10T02:02:38.423Z,24.37
2023-04-10T02:02:48.285Z,24.37
2023-04-10T02:02:58.328Z,24.37
2023-04-10T02:03:08.507Z,24.37
2023-04-10T02:03:18.466Z,24.37
2023-04-10T02:03:28.451Z,24.36
2023-04-10T02:03:38.615Z,24.37
2023-04-10T02:03:48.644Z,24.37
2023-04-10T02:03:58.837Z,24.36
2023-04-10T02:04:08.587Z,24.37
2023-04-10T02:04:18.682Z,24.37
2023-04-10T02:04:28.849Z,24.36
2023-04-10T02:04:38.893Z,24.37
2023-04-10T02:04:48.941Z,24.37
2023-04-10T02:04:59.286Z,24.37
2023-04-10T02:05:09.453Z,24.37
2023-04-10T02:05:19.475Z,24.37
2023-04-10T02:05:29.594Z,24.38
2023-04-10T02:05:39.593Z,24.37
2023-04-10T02:05:49.598Z,24.38
2023-04-10T02:05:59.972Z,24.38
2023-04-10T02:06:09.979Z,24.38
2023-04-10T02:06:20.101Z,24.39
2023-04-10T02:06:30.361Z,24.38
2023-04-10T02:06:40.479Z,24.39
2023-04-10T02:06:50.478Z,24.39
2023-04-10T02:07:00.762Z,24.39
2023-04-10T02:07:10.771Z,24.38
2023-04-10T02:07:20.791Z,24.40
2023-04-10T02:07:30.794Z,24.39
2023-04-10T02:07:40.802Z,24.38
2023-04-10T02:07:50.823Z,24.38
2023-04-10T02:08:00.825Z,24.39
2023-04-10T02:08:10.835Z,24.39
2023-04-10T02:08:20.839Z,24.39
2023-04-10T02:08:30.857Z,24.38
2023-04-10T02:08:40.861Z,24.38
2023-04-10T02:08:50.869Z,24.38
2023-04-10T02:09:00.887Z,24.38
2023-04-10T02:09:10.891Z,24.38
2023-04-10T02:09:20.900Z,24.38
2023-04-10T02:09:30.909Z,24.37